Time;durP1;ratioP1;P1;durP2;ratioP2;P2;SDS_P1;SDS_P2;PMS_P1;PMS_P2;Temp;Humidity;BMP_temperature;BMP_pressure;BME280_temperature;BME280_humidity;BME280_pressure;Samples;Min_cycle;Max_cycle;Signal;HPM_P1;HPM_P2
2022/11/11 00:00:59;;;;;;;7.77;2.70;;;9.40;99.90;;;;;;5051172;28;20279;-59
2022/11/11 00:03:26;;;;;;;4.20;2.50;;;9.40;99.90;;;;;;5051152;28;20719;-54
2022/11/11 00:05:53;;;;;;;3.30;2.50;;;9.40;99.90;;;;;;5050919;28;20216;-58
2022/11/11 00:08:19;;;;;;;9.90;2.90;;;9.40;99.90;;;;;;5054433;28;20263;-58
2022/11/11 00:10:47;;;;;;;5.87;3.00;;;9.40;99.90;;;;;;5054697;28;20213;-58
2022/11/11 00:13:14;;;;;;;6.00;2.80;;;9.40;99.90;;;;;;5054901;28;20232;-57
2022/11/11 00:15:41;;;;;;;6.10;3.23;;;9.30;99.90;;;;;;5054738;28;20228;-58
2022/11/11 00:26:26;;;;;;;8.00;3.47;;;9.10;99.90;;;;;;5054498;28;20200;-59
2022/11/11 00:28:53;;;;;;;7.60;3.93;;;9.10;99.90;;;;;;5054104;28;20252;-59
2022/11/11 00:31:20;;;;;;;7.10;3.80;;;9.00;99.90;;;;;;5054409;28;20679;-59
2022/11/11 00:33:46;;;;;;;7.00;3.57;;;9.00;99.90;;;;;;5053698;28;20278;-59
2022/11/11 00:36:12;;;;;;;10.97;3.73;;;8.90;99.90;;;;;;5054145;28;20228;-59
2022/11/11 00:38:46;;;;;;;7.77;3.20;;;8.90;99.90;;;;;;5054487;28;20208;-59
2022/11/11 00:41:15;;;;;;;8.50;3.60;;;9.00;99.90;;;;;;5054569;28;20218;-58
2022/11/11 00:43:44;;;;;;;8.33;3.87;;;9.00;99.90;;;;;;5054344;28;20313;-58
2022/11/11 00:51:39;;;;;;;6.93;3.37;;;8.90;99.90;;;;;;5053722;28;20227;-58
2022/11/11 00:54:06;;;;;;;5.17;3.50;;;8.90;99.90;;;;;;5053943;28;20216;-58
2022/11/11 00:56:35;;;;;;;6.30;3.33;;;8.90;99.90;;;;;;5053625;28;20209;-58
2022/11/11 00:59:03;;;;;;;5.17;3.07;;;8.90;99.90;;;;;;5054087;28;20742;-59
2022/11/11 01:01:30;;;;;;;7.10;3.50;;;8.80;99.90;;;;;;5053863;28;20211;-59
2022/11/11 01:03:58;;;;;;;7.40;3.40;;;8.90;99.90;;;;;;5054016;28;20260;-59
2022/11/11 01:06:25;;;;;;;7.07;3.67;;;8.90;99.90;;;;;;5053511;28;20223;-59
2022/11/11 01:08:52;;;;;;;6.07;3.33;;;8.90;99.90;;;;;;5053528;28;20216;-59
2022/11/11 01:11:21;;;;;;;5.20;3.27;;;8.90;99.90;;;;;;5053491;28;20264;-59
2022/11/11 01:13:48;;;;;;;6.67;3.23;;;9.00;99.90;;;;;;5053736;28;20231;-59
2022/11/11 01:16:17;;;;;;;8.20;3.17;;;9.00;99.90;;;;;;5053305;28;20282;-58
2022/11/11 01:18:44;;;;;;;6.60;3.17;;;9.00;99.90;;;;;;5052758;28;20260;-59
2022/11/11 01:21:14;;;;;;;8.80;3.40;;;9.00;99.90;;;;;;5053446;28;20254;-59
2022/11/11 01:23:41;;;;;;;7.10;3.23;;;9.00;99.90;;;;;;5053336;28;20232;-59
2022/11/11 01:26:13;;;;;;;5.57;2.80;;;9.00;99.90;;;;;;5053082;28;20237;-59
2022/11/11 01:28:40;;;;;;;4.87;3.23;;;9.00;99.90;;;;;;5036445;28;20631;-59
2022/11/11 01:31:08;;;;;;;6.73;3.37;;;9.00;99.90;;;;;;5053059;28;20271;-59
2022/11/11 01:33:37;;;;;;;7.70;2.53;;;9.00;99.90;;;;;;5053156;28;20229;-59
2022/11/11 01:36:06;;;;;;;7.03;3.70;;;9.10;99.90;;;;;;5052658;28;20220;-59
2022/11/11 01:38:33;;;;;;;7.60;3.03;;;9.10;99.90;;;;;;5052735;28;20251;-59
2022/11/11 01:41:31;;;;;;;4.63;2.80;;;9.10;99.90;;;;;;5053049;28;20273;-60
2022/11/11 01:43:47;;;;;;;5.27;2.80;;;9.10;99.90;;;;;;5052859;28;20278;-59
2022/11/11 01:46:23;;;;;;;4.90;3.10;;;9.10;99.90;;;;;;5052794;28;20267;-59
2022/11/11 01:51:46;;;;;;;10.80;3.40;;;9.10;99.90;;;;;;5052823;28;20674;-59
2022/11/11 01:54:17;;;;;;;6.60;3.30;;;9.10;99.90;;;;;;5053257;28;20215;-59
2022/11/11 01:56:49;;;;;;;9.30;3.20;;;9.10;99.90;;;;;;5052544;28;20227;-59
2022/11/11 01:59:17;;;;;;;8.27;3.20;;;9.10;99.90;;;;;;5052624;28;20219;-53
2022/11/11 02:01:45;;;;;;;4.60;2.57;;;9.10;99.90;;;;;;5052704;28;20238;-58
2022/11/11 02:07:02;;;;;;;5.83;2.83;;;9.10;99.90;;;;;;5052384;28;20208;-59
2022/11/11 02:09:30;;;;;;;5.33;2.97;;;9.10;99.90;;;;;;5052632;28;20203;-59
2022/11/11 02:14:47;;;;;;;5.37;2.80;;;9.10;99.90;;;;;;5052446;28;20278;-59
2022/11/11 02:17:15;;;;;;;4.93;2.73;;;9.10;99.90;;;;;;5052169;28;20216;-56
2022/11/11 02:19:50;;;;;;;5.53;2.83;;;9.10;99.90;;;;;;5052334;28;20214;-57
2022/11/11 02:22:26;;;;;;;4.70;2.60;;;9.10;99.90;;;;;;5052285;28;20239;-59
2022/11/11 02:24:54;;;;;;;8.63;2.83;;;9.10;99.90;;;;;;5052552;28;20211;-59
2022/11/11 02:27:23;;;;;;;9.30;3.07;;;9.10;99.90;;;;;;5051811;28;20217;-60
2022/11/11 02:29:52;;;;;;;7.77;2.90;;;9.10;99.90;;;;;;5052040;28;20209;-59
2022/11/11 02:32:19;;;;;;;5.23;2.80;;;9.10;99.90;;;;;;5051964;28;20234;-59
2022/11/11 02:34:46;;;;;;;4.03;2.60;;;9.10;99.90;;;;;;5051943;28;20675;-59
2022/11/11 02:37:16;;;;;;;3.63;2.70;;;9.00;99.90;;;;;;5051935;28;20620;-60
2022/11/11 02:39:47;;;;;;;5.73;2.60;;;9.00;99.90;;;;;;5052385;28;20239;-55
2022/11/11 02:42:17;;;;;;;6.93;2.60;;;9.00;99.90;;;;;;5051816;28;20301;-57
2022/11/11 02:44:44;;;;;;;6.77;2.70;;;9.10;99.90;;;;;;5052144;28;20217;-59
2022/11/11 02:47:10;;;;;;;5.23;2.80;;;9.00;99.90;;;;;;5051564;28;20206;-59
2022/11/11 02:49:37;;;;;;;5.80;2.90;;;9.00;99.90;;;;;;5052021;28;20269;-57
2022/11/11 02:52:04;;;;;;;6.67;2.97;;;9.00;99.90;;;;;;5051858;28;20226;-58
2022/11/11 02:54:31;;;;;;;4.10;3.00;;;8.90;99.90;;;;;;5052013;28;20243;-59
2022/11/11 02:57:06;;;;;;;7.30;3.30;;;8.90;99.90;;;;;;5051263;28;20231;-59
2022/11/11 02:59:35;;;;;;;4.97;2.83;;;8.90;99.90;;;;;;5051836;28;20215;-59
2022/11/11 03:02:02;;;;;;;4.07;3.03;;;8.90;99.90;;;;;;5051807;28;20225;-59
2022/11/11 03:04:28;;;;;;;6.97;2.67;;;8.80;99.90;;;;;;5051858;28;20215;-55
2022/11/11 03:06:55;;;;;;;6.70;3.00;;;8.80;99.90;;;;;;5051332;28;20205;-57
2022/11/11 03:09:23;;;;;;;5.87;2.67;;;8.80;99.90;;;;;;5051694;28;20716;-56
2022/11/11 03:11:50;;;;;;;8.53;3.00;;;8.80;99.90;;;;;;5051445;28;20213;-58
2022/11/11 03:14:17;;;;;;;5.87;2.90;;;8.80;99.90;;;;;;5051516;28;20263;-59
2022/11/11 03:19:29;;;;;;;9.57;3.30;;;8.70;99.90;;;;;;5051172;28;20239;-57
2022/11/11 03:21:56;;;;;;;4.63;3.00;;;8.70;99.90;;;;;;5051596;28;20230;-57
2022/11/11 03:24:22;;;;;;;9.10;3.77;;;8.70;99.90;;;;;;5051567;28;20268;-59
2022/11/11 03:26:49;;;;;;;4.93;3.43;;;8.70;99.90;;;;;;5051042;28;20205;-55
2022/11/11 03:29:16;;;;;;;7.93;3.40;;;8.60;99.90;;;;;;5051543;28;20210;-58
2022/11/11 03:31:42;;;;;;;5.80;3.00;;;8.60;99.90;;;;;;5051011;28;20263;-56
2022/11/11 03:34:19;;;;;;;7.40;3.10;;;8.60;99.90;;;;;;5051590;28;20209;-54
2022/11/11 03:39:30;;;;;;;6.50;2.77;;;8.70;99.90;;;;;;5051524;28;20314;-59
2022/11/11 03:41:57;;;;;;;4.73;2.53;;;8.80;99.90;;;;;;5052466;28;20229;-57
2022/11/11 03:44:24;;;;;;;7.10;3.00;;;8.80;99.90;;;;;;5055410;28;20208;-59
2022/11/11 03:46:50;;;;;;;4.77;2.57;;;8.80;99.90;;;;;;5055177;28;20212;-57
2022/11/11 03:49:18;;;;;;;5.03;2.20;;;8.80;99.90;;;;;;5055236;28;20265;-59
2022/11/11 03:51:45;;;;;;;4.03;2.43;;;8.80;99.90;;;;;;5055013;28;20209;-60
2022/11/11 03:54:12;;;;;;;3.70;2.33;;;8.90;99.90;;;;;;5054951;28;20678;-57
2022/11/11 03:56:38;;;;;;;3.63;2.27;;;8.90;99.90;;;;;;5055018;28;20286;-59
2022/11/11 03:59:05;;;;;;;5.73;2.87;;;8.90;96.70;;;;;;5054804;28;20268;-57
2022/11/11 04:16:04;;;;;;;4.70;2.40;;;9.00;76.60;;;;;;5054635;28;20223;-55
2022/11/11 04:18:16;;;;;;;7.20;2.77;;;9.00;72.70;;;;;;4992796;28;20249;-59
2022/11/11 04:23:28;;;;;;;3.30;2.30;;;9.00;69.10;;;;;;5027128;28;20229;-59
2022/11/11 04:25:55;;;;;;;6.93;2.37;;;9.00;73.10;;;;;;5054487;28;20236;-58
2022/11/11 04:31:06;;;;;;;6.17;2.90;;;8.90;73.90;;;;;;5054562;28;20249;-58
2022/11/11 04:33:32;;;;;;;5.07;2.50;;;8.90;76.80;;;;;;5054232;28;20235;-59
2022/11/11 04:35:58;;;;;;;5.97;2.80;;;8.80;90.10;;;;;;5053430;28;20232;-53
2022/11/11 04:41:11;;;;;;;4.70;2.63;;;8.70;96.80;;;;;;5054274;28;20207;-60
2022/11/11 04:46:19;;;;;;;7.03;2.80;;;8.60;99.90;;;;;;5052588;28;20208;-59
2022/11/11 04:48:46;;;;;;;3.80;2.57;;;8.60;99.90;;;;;;5054061;28;20210;-56
2022/11/11 04:51:13;;;;;;;4.40;2.73;;;8.60;99.90;;;;;;5054159;28;20207;-57
2022/11/11 04:53:40;;;;;;;5.60;2.33;;;8.60;99.90;;;;;;5052670;28;20237;-57
2022/11/11 04:59:14;;;;;;;6.17;2.50;;;8.60;99.90;;;;;;5053829;28;20220;-59
2022/11/11 05:04:24;;;;;;;5.37;2.20;;;8.60;96.00;;;;;;5053581;28;20210;-59
2022/11/11 05:09:35;;;;;;;3.40;2.43;;;8.70;92.90;;;;;;5053754;28;20577;-59
2022/11/11 05:12:01;;;;;;;6.83;2.50;;;8.70;90.50;;;;;;5053432;28;20226;-59
2022/11/11 05:22:43;;;;;;;8.37;2.27;;;8.90;60.00;;;;;;5053535;28;20221;-59
2022/11/11 05:25:25;;;;;;;3.80;2.10;;;8.90;55.30;;;;;;5053316;28;20230;-59
2022/11/11 05:27:53;;;;;;;3.93;2.03;;;8.90;55.00;;;;;;5053318;28;20211;-60
2022/11/11 05:30:22;;;;;;;3.00;2.17;;;8.80;57.20;;;;;;5052943;28;20234;-60
2022/11/11 05:32:49;;;;;;;5.27;1.83;;;8.80;58.60;;;;;;5053361;28;20312;-59
2022/11/11 05:35:17;;;;;;;4.67;2.40;;;8.80;62.50;;;;;;5053095;28;20206;-59
2022/11/11 05:38:18;;;;;;;4.17;2.17;;;8.80;63.70;;;;;;5052836;28;20210;-57
2022/11/11 05:40:31;;;;;;;4.70;2.07;;;8.70;65.70;;;;;;5052556;28;20211;-59
2022/11/11 05:42:57;;;;;;;6.40;2.60;;;8.70;68.10;;;;;;5052941;28;20663;-59
2022/11/11 05:45:25;;;;;;;3.20;2.03;;;8.70;68.30;;;;;;5052129;28;20311;-55
2022/11/11 05:47:52;;;;;;;4.63;2.03;;;8.70;63.20;;;;;;5030758;28;20211;-61
2022/11/11 05:50:18;;;;;;;4.03;1.83;;;8.80;56.90;;;;;;5031898;28;20352;-61
2022/11/11 05:52:48;;;;;;;3.23;1.60;;;8.80;54.50;;;;;;5032467;28;20231;-61
2022/11/11 05:55:14;;;;;;;3.17;1.73;;;8.70;55.00;;;;;;5032249;28;20208;-61
2022/11/11 05:57:41;;;;;;;3.00;1.90;;;8.70;55.70;;;;;;5032578;28;20289;-61
2022/11/11 06:00:09;;;;;;;4.50;1.80;;;8.70;57.40;;;;;;5032209;28;20259;-60
2022/11/11 06:02:38;;;;;;;4.73;2.00;;;8.70;57.70;;;;;;5032459;28;20583;-61
2022/11/11 06:05:06;;;;;;;4.20;2.00;;;8.70;57.20;;;;;;5031672;28;20213;-61
2022/11/11 06:07:33;;;;;;;7.77;2.07;;;8.70;56.40;;;;;;5032600;28;20266;-61
2022/11/11 06:13:00;;;;;;;2.90;1.83;;;8.70;53.80;;;;;;5031330;28;20223;-61
2022/11/11 06:15:28;;;;;;;4.10;1.77;;;8.70;50.30;;;;;;5032019;28;20208;-61
2022/11/11 06:17:56;;;;;;;7.97;2.50;;;8.70;49.00;;;;;;5032370;28;20263;-61
2022/11/11 06:20:23;;;;;;;1.97;1.60;;;8.70;49.50;;;;;;5032132;28;20212;-61
2022/11/11 06:22:56;;;;;;;4.10;1.97;;;8.70;49.20;;;;;;5031994;28;20237;-61
2022/11/11 06:28:07;;;;;;;7.20;2.17;;;8.70;50.00;;;;;;5031615;28;20203;-61
2022/11/11 06:30:33;;;;;;;4.30;1.77;;;8.70;49.90;;;;;;5032172;28;20248;-60
2022/11/11 06:33:01;;;;;;;5.33;1.80;;;8.70;47.70;;;;;;5031660;28;20233;-61
2022/11/11 06:35:28;;;;;;;4.60;1.90;;;8.80;42.20;;;;;;5032112;28;20208;-61
2022/11/11 06:37:55;;;;;;;4.77;2.23;;;8.80;37.20;;;;;;5031206;28;20259;-61
2022/11/11 06:40:23;;;;;;;3.90;1.57;;;8.80;32.60;;;;;;5031665;28;20702;-61
2022/11/11 06:42:49;;;;;;;4.47;1.93;;;8.80;35.20;;;;;;5031142;28;20248;-62
2022/11/11 06:45:16;;;;;;;6.50;2.53;;;8.80;33.60;;;;;;5032089;28;20263;-61
2022/11/11 06:47:43;;;;;;;2.90;1.83;;;8.80;33.70;;;;;;5031068;28;20234;-61
2022/11/11 06:50:11;;;;;;;2.63;1.43;;;8.80;35.60;;;;;;5030982;28;20213;-61
2022/11/11 06:52:38;;;;;;;4.17;1.83;;;8.80;38.20;;;;;;5031479;28;20225;-59
2022/11/11 06:55:05;;;;;;;3.57;1.90;;;8.80;41.20;;;;;;5030443;28;20283;-61
2022/11/11 06:57:32;;;;;;;2.47;1.70;;;8.80;43.80;;;;;;5029741;28;20252;-60
2022/11/11 06:59:58;;;;;;;5.53;1.97;;;8.80;45.80;;;;;;5030956;28;20258;-61
2022/11/11 07:02:25;;;;;;;3.67;2.00;;;8.80;47.70;;;;;;5031563;28;20232;-58
2022/11/11 07:04:52;;;;;;;5.47;1.93;;;8.80;47.30;;;;;;5030834;28;20220;-60
2022/11/11 07:07:20;;;;;;;3.37;1.57;;;8.80;44.70;;;;;;5031589;28;20213;-60
2022/11/11 07:09:46;;;;;;;4.13;2.00;;;8.80;44.10;;;;;;5030998;28;20208;-62
2022/11/11 07:12:13;;;;;;;6.00;2.00;;;8.80;49.10;;;;;;5031202;28;20228;-62
2022/11/11 07:14:40;;;;;;;4.03;1.70;;;8.90;83.10;;;;;;5031316;28;20210;-63
2022/11/11 07:17:06;;;;;;;6.03;2.57;;;9.00;61.80;;;;;;5032435;28;20225;-60
2022/11/11 07:19:33;;;;;;;4.27;1.70;;;9.10;37.30;;;;;;5035467;28;20282;-61
2022/11/11 07:22:00;;;;;;;4.53;2.60;;;9.00;28.60;;;;;;5034996;28;20228;-62
2022/11/11 07:24:28;;;;;;;5.07;2.00;;;9.10;30.10;;;;;;5035590;28;20216;-63
2022/11/11 07:26:55;;;;;;;7.93;2.23;;;9.10;31.40;;;;;;5035055;28;20208;-62
2022/11/11 07:29:21;;;;;;;3.63;1.90;;;9.00;34.70;;;;;;5020439;28;20213;-57
2022/11/11 07:31:50;;;;;;;61.73;19.80;;;8.90;40.90;;;;;;5034739;28;20213;-58
2022/11/11 07:34:16;;;;;;;36.60;11.07;;;9.00;63.10;;;;;;5034952;28;20300;-60
2022/11/11 07:36:43;;;;;;;5.23;2.37;;;9.00;70.70;;;;;;5033582;28;20225;-60
2022/11/11 07:39:10;;;;;;;5.23;2.27;;;9.10;46.00;;;;;;5034645;28;20213;-60
2022/11/11 07:41:38;;;;;;;4.40;2.13;;;9.10;33.50;;;;;;5034691;28;20280;-60
2022/11/11 07:44:04;;;;;;;6.07;1.90;;;9.10;34.00;;;;;;5034218;28;20301;-60
2022/11/11 07:46:31;;;;;;;4.83;2.20;;;9.20;30.30;;;;;;5034488;28;20206;-62
2022/11/11 07:48:58;;;;;;;3.70;2.20;;;9.20;29.40;;;;;;5033809;28;20217;-60
2022/11/11 07:51:24;;;;;;;3.50;1.70;;;9.20;23.60;;;;;;5034711;28;20206;-61
2022/11/11 07:53:52;;;;;;;3.13;1.80;;;9.30;17.30;;;;;;5034455;28;20273;-60
2022/11/11 07:56:19;;;;;;;9.30;2.53;;;9.30;16.50;;;;;;5034592;28;20226;-61
2022/11/11 07:58:47;;;;;;;3.97;2.00;;;9.40;7.50;;;;;;5034170;28;20213;-58
2022/11/11 08:01:13;;;;;;;3.37;1.83;;;9.40;5.40;;;;;;5034608;28;20213;-60
2022/11/11 08:03:48;;;;;;;19.57;5.20;;;9.50;1.00;;;;;;5033689;28;20509;-59
2022/11/11 08:06:16;;;;;;;13.23;4.33;;;9.50;1.00;;;;;;5052156;28;20556;-58
2022/11/11 08:08:42;;;;;;;7.57;3.43;;;9.70;1.00;;;;;;5053999;28;20291;-61
2022/11/11 08:11:09;;;;;;;27.13;9.57;;;9.70;1.00;;;;;;5053878;28;20206;-61
2022/11/11 08:13:42;;;;;;;5.17;2.10;;;9.80;1.00;;;;;;5053980;28;20226;-60
2022/11/11 08:16:12;;;;;;;8.27;2.53;;;9.90;1.00;;;;;;5053873;28;20208;-60
2022/11/11 08:18:38;;;;;;;16.60;4.87;;;9.90;1.00;;;;;;5053772;28;20818;-60
2022/11/11 08:21:06;;;;;;;9.20;3.47;;;10.00;1.00;;;;;;5053611;28;20209;-62
2022/11/11 08:23:33;;;;;;;10.10;3.87;;;10.00;1.00;;;;;;5053996;28;20672;-61
2022/11/11 08:26:00;;;;;;;5.77;2.57;;;10.10;1.00;;;;;;5053776;28;20305;-62
2022/11/11 08:28:28;;;;;;;13.50;4.37;;;10.10;1.00;;;;;;5052864;28;20205;-61
2022/11/11 08:30:57;;;;;;;8.20;2.90;;;10.20;1.00;;;;;;5048588;28;20669;-59
2022/11/11 08:33:26;;;;;;;3.23;1.50;;;10.30;1.00;;;;;;5033384;28;20713;-62
2022/11/11 08:35:54;;;;;;;6.40;3.27;;;10.30;1.00;;;;;;5033637;28;20209;-61
2022/11/11 08:38:20;;;;;;;5.00;2.00;;;10.40;1.00;;;;;;5032691;28;20268;-61
2022/11/11 08:40:47;;;;;;;6.77;2.80;;;10.40;1.00;;;;;;5033459;28;20206;-62
2022/11/11 08:43:14;;;;;;;8.63;2.10;;;10.50;1.00;;;;;;5033247;28;20230;-60
2022/11/11 08:45:41;;;;;;;3.30;1.80;;;10.50;1.00;;;;;;5033272;28;20264;-62
2022/11/11 08:48:09;;;;;;;11.27;3.20;;;10.60;1.00;;;;;;5033434;28;20255;-60
2022/11/11 08:50:38;;;;;;;4.47;2.27;;;10.70;1.00;;;;;;5033031;28;20297;-61
2022/11/11 08:53:07;;;;;;;3.67;1.97;;;10.80;1.00;;;;;;5033610;28;20276;-61
2022/11/11 08:55:34;;;;;;;6.03;2.70;;;10.90;1.00;;;;;;5033172;28;20218;-59
2022/11/11 08:58:02;;;;;;;2.63;1.77;;;10.90;1.00;;;;;;5033024;28;20230;-59
2022/11/11 09:00:29;;;;;;;3.60;1.90;;;11.00;1.00;;;;;;5033029;28;20217;-60
2022/11/11 09:03:00;;;;;;;4.07;1.90;;;11.00;1.00;;;;;;5033239;28;20608;-60
2022/11/11 09:05:27;;;;;;;2.83;1.53;;;11.10;1.00;;;;;;5032942;28;20234;-58
2022/11/11 09:07:55;;;;;;;3.20;1.33;;;11.10;1.00;;;;;;5032628;28;20203;-59
2022/11/11 09:10:22;;;;;;;5.60;1.77;;;11.20;1.00;;;;;;5033168;28;20693;-60
2022/11/11 09:12:49;;;;;;;5.83;1.60;;;11.30;1.00;;;;;;5032820;28;20227;-60
2022/11/11 09:15:15;;;;;;;24.70;2.53;;;11.30;1.00;;;;;;5033058;28;20315;-60
2022/11/11 09:17:46;;;;;;;2.17;1.30;;;11.40;1.00;;;;;;5032679;28;20238;-63
2022/11/11 09:20:13;;;;;;;2.70;1.80;;;11.40;99.90;;;;;;5032981;28;20211;-61
2022/11/11 09:22:42;;;;;;;6.63;1.90;;;11.50;99.90;;;;;;5032110;28;20234;-62
2022/11/11 09:25:11;;;;;;;2.67;1.27;;;11.60;99.90;;;;;;5032780;28;20293;-61
2022/11/11 09:27:38;;;;;;;3.57;1.47;;;11.60;99.90;;;;;;5032567;28;20207;-61
2022/11/11 09:30:05;;;;;;;3.77;1.67;;;11.70;1.00;;;;;;5032533;28;20208;-61
2022/11/11 09:32:33;;;;;;;3.33;1.50;;;11.70;1.00;;;;;;5032915;28;20853;-62
2022/11/11 09:35:00;;;;;;;4.60;1.40;;;11.80;99.90;;;;;;5032247;28;20222;-61
2022/11/11 09:37:27;;;;;;;2.17;1.57;;;11.90;99.90;;;;;;5032253;28;20631;-61
2022/11/11 09:39:54;;;;;;;3.67;1.50;;;12.00;1.00;;;;;;5031459;28;20217;-61
2022/11/11 09:42:33;;;;;;;3.93;1.77;;;12.00;1.00;;;;;;5032453;28;20267;-61
2022/11/11 09:45:13;;;;;;;2.50;1.77;;;11.90;99.90;;;;;;5032280;28;20211;-61
2022/11/11 09:47:50;;;;;;;2.13;1.67;;;12.00;99.90;;;;;;5032330;28;20202;-62
2022/11/11 09:50:21;;;;;;;1.30;0.97;;;12.00;99.90;;;;;;5031602;28;20800;-63
2022/11/11 09:52:54;;;;;;;2.03;1.23;;;12.10;96.20;;;;;;5032242;28;20230;-63
2022/11/11 09:55:24;;;;;;;2.03;1.30;;;12.30;99.90;;;;;;5032294;28;20286;-62
2022/11/11 09:57:57;;;;;;;1.87;1.37;;;12.40;99.90;;;;;;5031905;28;20299;-62
2022/11/11 10:00:27;;;;;;;2.13;1.33;;;12.40;99.90;;;;;;5032014;28;20590;-62
2022/11/11 10:02:58;;;;;;;2.33;1.47;;;12.60;92.70;;;;;;5031602;28;20237;-64
2022/11/11 10:05:27;;;;;;;3.20;2.00;;;12.70;1.00;;;;;;5032270;28;20190;-61
2022/11/11 10:07:57;;;;;;;5.57;1.50;;;12.70;99.90;;;;;;5031458;28;20723;-61
2022/11/11 10:10:32;;;;;;;4.33;1.30;;;12.80;99.90;;;;;;5031969;28;20210;-62
2022/11/11 10:13:00;;;;;;;3.60;1.10;;;12.80;99.90;;;;;;5031230;28;20237;-61
2022/11/11 10:15:34;;;;;;;2.10;1.30;;;12.90;99.90;;;;;;5032117;28;20214;-61
2022/11/11 10:18:18;;;;;;;5.53;1.90;;;12.90;99.90;;;;;;5031155;28;20228;-63
2022/11/11 10:20:50;;;;;;;3.70;1.43;;;12.80;1.00;;;;;;5031979;28;20270;-62
2022/11/11 10:23:20;;;;;;;2.60;1.70;;;12.80;1.00;;;;;;5031507;28;20233;-62
2022/11/11 10:25:53;;;;;;;2.73;1.40;;;12.70;1.00;;;;;;5031614;28;20217;-61
2022/11/11 10:28:24;;;;;;;2.77;1.53;;;12.70;1.00;;;;;;5031687;28;20206;-61
2022/11/11 10:30:52;;;;;;;1.93;1.40;;;12.80;1.00;;;;;;5031337;28;20240;-64
2022/11/11 10:33:24;;;;;;;2.67;1.30;;;12.80;1.00;;;;;;5031719;28;20313;-64
2022/11/11 10:35:54;;;;;;;3.90;1.90;;;12.80;99.90;;;;;;5021667;28;20214;-64
2022/11/11 10:38:32;;;;;;;3.10;1.50;;;12.70;99.90;;;;;;5025196;28;20287;-65
2022/11/11 10:41:09;;;;;;;4.07;1.30;;;12.80;99.90;;;;;;5050687;28;20300;-64
2022/11/11 10:43:37;;;;;;;2.03;1.50;;;12.80;99.90;;;;;;5051456;28;20228;-61
2022/11/11 10:46:09;;;;;;;2.10;1.43;;;12.90;99.90;;;;;;5050879;28;20277;-61
2022/11/11 10:48:49;;;;;;;4.67;1.10;;;13.00;99.90;;;;;;5050991;28;20622;-58
2022/11/11 10:51:17;;;;;;;3.13;1.30;;;13.00;99.90;;;;;;5051423;28;20208;-62
2022/11/11 10:53:50;;;;;;;2.03;1.20;;;13.00;99.90;;;;;;5050729;28;20600;-61
2022/11/11 10:56:21;;;;;;;1.80;1.20;;;13.00;99.90;;;;;;5051073;28;20201;-60
2022/11/11 10:58:54;;;;;;;3.43;1.50;;;13.20;99.90;;;;;;5050178;28;20225;-61
2022/11/11 11:01:28;;;;;;;1.47;0.97;;;13.30;99.90;;;;;;5052013;28;20683;-61
2022/11/11 11:03:59;;;;;;;2.20;1.40;;;13.50;99.90;;;;;;5050499;28;20720;-62
2022/11/11 11:06:29;;;;;;;2.33;1.30;;;13.60;99.90;;;;;;5050923;28;20205;-62
2022/11/11 11:09:01;;;;;;;3.83;1.30;;;13.70;99.90;;;;;;5036905;28;20260;-59
2022/11/11 11:11:32;;;;;;;3.17;1.33;;;13.80;99.90;;;;;;5030403;28;20209;-60
2022/11/11 11:14:03;;;;;;;2.33;1.50;;;13.90;99.90;;;;;;5031580;28;20206;-64
2022/11/11 11:16:35;;;;;;;2.30;1.30;;;14.00;1.00;;;;;;5030531;28;20218;-65
2022/11/11 11:19:16;;;;;;;3.27;1.30;;;14.00;1.00;;;;;;5031315;28;20229;-62
2022/11/11 11:21:51;;;;;;;4.33;1.30;;;14.20;1.00;;;;;;5030625;28;20297;-60
2022/11/11 11:24:23;;;;;;;3.27;1.13;;;14.20;1.00;;;;;;5031106;28;20213;-61
2022/11/11 11:26:52;;;;;;;1.33;1.17;;;14.40;1.00;;;;;;5030402;28;20214;-62
2022/11/11 11:29:29;;;;;;;1.73;1.07;;;14.40;1.00;;;;;;5031265;28;20207;-60
2022/11/11 11:32:10;;;;;;;4.30;1.07;;;14.30;1.00;;;;;;5030568;28;20256;-63
2022/11/11 11:34:47;;;;;;;4.07;1.10;;;14.20;1.00;;;;;;5030972;28;20213;-62
2022/11/11 11:37:14;;;;;;;4.83;1.03;;;14.30;1.00;;;;;;5030621;28;20692;-61
2022/11/11 11:39:41;;;;;;;2.80;1.17;;;14.10;1.00;;;;;;5030057;28;20217;-67
2022/11/11 11:42:10;;;;;;;3.03;1.37;;;14.00;1.00;;;;;;5030792;28;20234;-65
2022/11/11 11:44:39;;;;;;;2.87;1.20;;;14.10;1.00;;;;;;5028537;28;20210;-63
2022/11/11 11:47:29;;;;;;;2.70;1.10;;;14.10;1.00;;;;;;5030967;28;20210;-61
2022/11/11 11:50:22;;;;;;;3.30;1.40;;;14.20;1.00;;;;;;5030290;28;20221;-67
2022/11/11 11:52:57;;;;;;;2.40;0.90;;;14.30;1.00;;;;;;5030987;28;20231;-66
2022/11/11 11:55:27;;;;;;;2.70;1.13;;;14.30;99.90;;;;;;5030620;28;20210;-66
2022/11/11 11:58:12;;;;;;;6.20;1.33;;;14.40;99.90;;;;;;5030664;28;20663;-66
2022/11/11 12:00:51;;;;;;;3.37;1.20;;;14.50;1.00;;;;;;5030188;28;20248;-66
2022/11/11 12:03:41;;;;;;;4.67;1.27;;;14.60;99.90;;;;;;5032337;28;20230;-66
2022/11/11 12:06:16;;;;;;;1.07;0.70;;;14.80;99.90;;;;;;5033741;28;20703;-62
2022/11/11 12:08:56;;;;;;;2.50;0.90;;;14.70;99.90;;;;;;5033996;28;20727;-64
2022/11/11 12:11:32;;;;;;;2.10;1.00;;;14.80;99.90;;;;;;5014270;28;20229;-63
2022/11/11 12:14:24;;;;;;;3.03;0.87;;;14.80;99.90;;;;;;5014412;28;20233;-63
2022/11/11 12:16:58;;;;;;;1.73;0.90;;;14.80;99.90;;;;;;5032074;28;20213;-64
2022/11/11 12:19:38;;;;;;;1.07;0.73;;;14.70;99.90;;;;;;5033999;28;20226;-62
2022/11/11 12:22:16;;;;;;;2.40;0.93;;;14.70;99.90;;;;;;5033796;28;20275;-62
2022/11/11 12:24:51;;;;;;;1.53;0.80;;;14.60;99.90;;;;;;5033837;28;20895;-62
2022/11/11 12:27:27;;;;;;;3.33;1.17;;;14.60;99.90;;;;;;5033896;28;20210;-62
2022/11/11 12:30:03;;;;;;;3.37;0.90;;;14.60;99.90;;;;;;5034032;28;20206;-61
2022/11/11 12:32:54;;;;;;;7.67;1.00;;;14.50;99.90;;;;;;5033743;28;20363;-62
2022/11/11 12:35:33;;;;;;;3.37;0.97;;;14.50;99.90;;;;;;5033973;28;20214;-63
2022/11/11 12:38:15;;;;;;;2.10;1.10;;;14.60;99.90;;;;;;5033895;28;20233;-63
2022/11/11 12:40:52;;;;;;;2.60;1.27;;;14.50;99.90;;;;;;5039958;28;20212;-63
2022/11/11 12:43:25;;;;;;;3.50;0.97;;;14.40;99.90;;;;;;5054207;28;20236;-63
2022/11/11 12:46:01;;;;;;;2.80;1.20;;;14.30;99.90;;;;;;5053621;28;20684;-62
2022/11/11 12:48:38;;;;;;;2.90;1.10;;;14.40;99.90;;;;;;5053551;28;20197;-64
2022/11/11 12:51:17;;;;;;;4.07;1.10;;;14.40;99.90;;;;;;5052870;28;20205;-62
2022/11/11 12:53:54;;;;;;;2.23;0.80;;;14.40;99.90;;;;;;5053517;28;20282;-64
2022/11/11 12:56:29;;;;;;;1.50;0.90;;;14.40;99.90;;;;;;5022267;28;20210;-62
2022/11/11 12:59:00;;;;;;;3.70;1.07;;;14.50;99.90;;;;;;5033347;28;20854;-61
2022/11/11 13:01:38;;;;;;;1.33;1.00;;;14.60;99.90;;;;;;5033257;28;20210;-63
2022/11/11 13:04:29;;;;;;;2.83;1.10;;;14.60;99.90;;;;;;5033219;28;20284;-64
2022/11/11 13:07:08;;;;;;;1.63;1.00;;;14.50;99.90;;;;;;5032746;28;20234;-63
2022/11/11 13:09:50;;;;;;;1.93;1.13;;;14.40;99.90;;;;;;5033088;28;20268;-64
2022/11/11 13:12:20;;;;;;;2.60;0.80;;;14.50;99.90;;;;;;5032117;28;20276;-62
2022/11/11 13:14:57;;;;;;;1.47;0.90;;;14.50;99.90;;;;;;5031900;28;20676;-60
2022/11/11 13:17:24;;;;;;;7.07;1.00;;;14.50;99.90;;;;;;5032730;28;20256;-63
2022/11/11 13:19:55;;;;;;;4.73;1.20;;;14.40;99.90;;;;;;5032792;28;20222;-63
2022/11/11 13:22:25;;;;;;;1.70;1.13;;;14.40;99.90;;;;;;5032828;28;20303;-62
2022/11/11 13:24:54;;;;;;;1.40;1.07;;;14.40;99.90;;;;;;5032101;28;20403;-62
2022/11/11 13:27:29;;;;;;;2.50;0.93;;;14.40;99.90;;;;;;5032699;28;20252;-62
2022/11/11 13:30:13;;;;;;;1.10;0.97;;;14.40;99.90;;;;;;5032390;28;20198;-62
2022/11/11 13:32:44;;;;;;;3.40;1.23;;;14.50;99.90;;;;;;5032653;28;20226;-62
2022/11/11 13:35:22;;;;;;;1.67;0.93;;;14.60;99.90;;;;;;5032229;28;20233;-63
2022/11/11 13:37:50;;;;;;;2.07;0.90;;;14.50;99.90;;;;;;5032659;28;20210;-62
2022/11/11 13:40:33;;;;;;;1.67;0.80;;;14.50;99.90;;;;;;5032095;28;20553;-62
2022/11/11 13:43:01;;;;;;;2.17;0.80;;;14.60;99.90;;;;;;5032359;28;20230;-61
2022/11/11 13:45:31;;;;;;;1.67;1.07;;;14.60;99.90;;;;;;5031967;28;20219;-62
2022/11/11 13:47:58;;;;;;;2.47;0.90;;;14.50;99.90;;;;;;5032591;28;20264;-62
2022/11/11 13:50:29;;;;;;;2.33;0.93;;;14.50;99.90;;;;;;5032227;28;20677;-61
2022/11/11 13:53:00;;;;;;;2.87;1.20;;;14.50;99.90;;;;;;5032290;28;20785;-61
2022/11/11 13:55:32;;;;;;;5.43;1.10;;;14.50;99.90;;;;;;5032471;28;20210;-62
2022/11/11 13:58:00;;;;;;;2.67;0.83;;;14.40;99.90;;;;;;5031248;28;20213;-62
2022/11/11 14:00:30;;;;;;;2.93;0.90;;;14.40;99.90;;;;;;5031918;28;20265;-62
2022/11/11 14:03:29;;;;;;;1.70;0.87;;;14.40;99.90;;;;;;5031301;28;20734;-59
2022/11/11 14:06:25;;;;;;;2.07;1.00;;;14.40;99.90;;;;;;5022841;28;20202;-60
2022/11/11 14:08:54;;;;;;;3.47;1.20;;;14.40;99.90;;;;;;5018390;28;20214;-61
2022/11/11 14:11:30;;;;;;;2.07;1.10;;;14.40;99.90;;;;;;5032126;28;20206;-62
2022/11/11 14:13:57;;;;;;;4.07;1.10;;;14.40;99.90;;;;;;5031554;28;20226;-60
2022/11/11 14:16:59;;;;;;;14.93;1.50;;;14.40;99.90;;;;;;5031505;28;20677;-61
2022/11/11 14:19:31;;;;;;;10.47;1.53;;;14.40;99.90;;;;;;5023253;28;20229;-60
2022/11/11 14:21:59;;;;;;;15.47;2.00;;;14.20;99.90;;;;;;5031967;28;20218;-62
2022/11/11 14:24:35;;;;;;;9.00;1.67;;;14.30;99.90;;;;;;5025023;28;20237;-61